createdAt,value
2018-09-12T00:00:00.854Z,99.99
2018-09-12T00:01:00.876Z,99.99
2018-09-12T00:02:00.904Z,99.99
2018-09-12T00:03:00.921Z,99.99
2018-09-12T00:04:00.947Z,99.99
2018-09-12T00:05:00.974Z,99.99
2018-09-12T00:06:00.997Z,99.99
2018-09-12T00:07:01.022Z,99.99
2018-09-12T00:08:01.045Z,99.99
2018-09-12T00:09:01.070Z,99.99
2018-09-12T00:10:01.092Z,99.99
2018-09-12T00:11:01.113Z,99.99
2018-09-12T00:12:01.141Z,99.99
2018-09-12T00:13:01.163Z,99.99
2018-09-12T00:14:01.182Z,99.99
2018-09-12T00:15:01.211Z,99.99
2018-09-12T00:16:01.229Z,99.99
2018-09-12T00:17:01.256Z,99.99
2018-09-12T00:18:01.280Z,99.99
2018-09-12T00:19:01.307Z,99.99
2018-09-12T00:20:01.328Z,99.99
2018-09-12T00:21:01.408Z,99.99
2018-09-12T00:22:01.373Z,99.99
2018-09-12T00:23:01.398Z,99.99
2018-09-12T00:24:01.425Z,99.99
2018-09-12T00:25:01.446Z,99.99
2018-09-12T00:26:01.471Z,99.99
2018-09-12T00:27:01.490Z,99.99
2018-09-12T00:28:01.520Z,99.99
2018-09-12T00:29:01.542Z,99.99
2018-09-12T00:30:01.561Z,99.99
2018-09-12T00:31:01.587Z,99.99
2018-09-12T00:32:01.610Z,99.99
2018-09-12T00:33:01.632Z,99.99
2018-09-12T00:34:01.659Z,99.99
2018-09-12T00:35:01.682Z,99.99
2018-09-12T00:36:01.707Z,99.99
2018-09-12T00:37:01.725Z,99.99
2018-09-12T00:38:01.750Z,99.99
2018-09-12T00:39:01.774Z,99.99
2018-09-12T00:40:01.796Z,99.99
2018-09-12T00:41:01.827Z,99.99
2018-09-12T00:42:01.846Z,99.99
2018-09-12T00:43:01.864Z,99.99
2018-09-12T00:44:01.892Z,99.99
2018-09-12T00:45:01.912Z,99.99
2018-09-12T00:46:01.945Z,99.99
2018-09-12T00:47:01.961Z,99.99
2018-09-12T00:48:01.979Z,99.99
2018-09-12T00:49:02.004Z,98.86
2018-09-12T00:50:02.035Z,98.19
2018-09-12T00:51:02.056Z,98.67
2018-09-12T00:52:02.080Z,96.56
2018-09-12T00:53:02.100Z,94.16
2018-09-12T00:54:02.122Z,92.53
2018-09-12T00:55:02.155Z,91.57
2018-09-12T00:56:02.170Z,92.10
2018-09-12T00:57:02.194Z,91.42
2018-09-12T00:58:02.242Z,91.52
2018-09-12T00:59:02.238Z,92.39
2018-09-12T01:00:02.260Z,91.52
2018-09-12T01:01:02.281Z,90.47
2018-09-12T01:02:02.301Z,91.05
2018-09-12T01:03:02.331Z,92.96
2018-09-12T01:04:02.353Z,92.48
2018-09-12T01:05:02.371Z,93.06
2018-09-12T01:06:02.396Z,96.03
2018-09-12T01:07:02.420Z,93.54
2018-09-12T01:08:02.439Z,93.44
2018-09-12T01:09:02.471Z,92.48
2018-09-12T01:10:02.487Z,94.12
2018-09-12T01:11:02.509Z,94.54
2018-09-12T01:12:02.528Z,94.35
2018-09-12T01:13:02.548Z,94.21
2018-09-12T01:14:02.575Z,95.07
2018-09-12T01:15:02.597Z,92.63
2018-09-12T01:16:02.625Z,92.68
2018-09-12T01:17:02.641Z,93.54
2018-09-12T01:18:02.659Z,94.40
2018-09-12T01:19:02.677Z,95.17
2018-09-12T01:20:02.712Z,94.12
2018-09-12T01:21:02.730Z,96.89
2018-09-12T01:22:02.758Z,98.33
2018-09-12T01:23:02.780Z,96.70
2018-09-12T01:24:02.797Z,95.65
2018-09-12T01:25:02.821Z,97.19
2018-09-12T01:26:02.840Z,96.22
2018-09-12T01:27:02.861Z,97.47
2018-09-12T01:28:02.888Z,96.03
2018-09-12T01:29:02.905Z,95.55
2018-09-12T01:30:02.931Z,95.36
2018-09-12T01:31:02.949Z,98.62
2018-09-12T01:32:02.977Z,97.09
2018-09-12T01:33:02.996Z,97.56
2018-09-12T01:34:03.019Z,98.72
2018-09-12T01:35:03.039Z,98.24
2018-09-12T01:36:03.062Z,97.86
2018-09-12T01:37:03.083Z,97.66
2018-09-12T01:38:03.110Z,98.14
2018-09-12T01:39:03.138Z,97.76
2018-09-12T01:40:03.181Z,95.94
2018-09-12T01:41:03.176Z,95.94
2018-09-12T01:42:03.235Z,96.51
2018-09-12T01:43:03.219Z,95.84
2018-09-12T01:44:03.239Z,96.89
2018-09-12T01:45:03.261Z,97.56
2018-09-12T01:46:03.291Z,98.14
2018-09-12T01:47:03.313Z,98.43
2018-09-12T01:48:03.330Z,96.32
2018-09-12T01:49:03.355Z,96.51
2018-09-12T01:50:03.379Z,95.84
2018-09-12T01:51:03.401Z,95.36
2018-09-12T01:52:03.425Z,94.40
2018-09-12T01:53:03.443Z,94.12
2018-09-12T01:54:03.470Z,93.06
2018-09-12T01:55:03.489Z,92.48
2018-09-12T01:56:03.509Z,91.33
2018-09-12T01:57:03.539Z,91.09
2018-09-12T01:58:03.558Z,91.62
2018-09-12T01:59:03.574Z,91.00
2018-09-12T02:00:03.599Z,90.28
2018-09-12T02:01:03.619Z,90.18
2018-09-12T02:02:03.648Z,86.63
2018-09-12T02:03:03.669Z,85.44
2018-09-12T02:04:03.696Z,86.30
2018-09-12T02:05:03.717Z,85.34
2018-09-12T02:06:03.741Z,85.82
2018-09-12T02:07:03.757Z,84.95
2018-09-12T02:08:03.781Z,84.67
2018-09-12T02:09:03.800Z,84.09
2018-09-12T02:10:03.824Z,83.33
2018-09-12T02:11:03.850Z,82.75
2018-09-12T02:12:03.867Z,82.85
2018-09-12T02:13:03.897Z,82.94
2018-09-12T02:14:03.916Z,82.85
2018-09-12T02:15:03.946Z,83.04
2018-09-12T02:16:03.955Z,82.27
2018-09-12T02:17:03.979Z,82.94
2018-09-12T02:18:03.997Z,82.75
2018-09-12T02:19:04.023Z,82.18
2018-09-12T02:20:04.043Z,81.89
2018-09-12T02:21:04.061Z,81.98
2018-09-12T02:22:04.087Z,81.98
2018-09-12T02:23:04.107Z,81.60
2018-09-12T02:24:04.132Z,81.60
2018-09-12T02:25:04.150Z,84.38
2018-09-12T02:26:04.173Z,83.61
2018-09-12T02:27:04.200Z,82.37
2018-09-12T02:28:04.217Z,81.89
2018-09-12T02:29:04.239Z,81.79
2018-09-12T02:30:04.263Z,81.60
2018-09-12T02:31:04.282Z,81.22
2018-09-12T02:32:04.307Z,81.27
2018-09-12T02:33:04.325Z,81.31
2018-09-12T02:34:04.348Z,81.60
2018-09-12T02:35:04.372Z,80.79
2018-09-12T02:36:04.393Z,81.08
2018-09-12T02:37:04.413Z,81.27
2018-09-12T02:38:04.447Z,81.46
2018-09-12T02:39:04.464Z,80.99
2018-09-12T02:40:04.490Z,80.70
2018-09-12T02:41:04.501Z,81.46
2018-09-12T02:42:04.531Z,81.66
2018-09-12T02:43:04.543Z,81.18
2018-09-12T02:44:04.569Z,81.27
2018-09-12T02:45:04.589Z,80.99
2018-09-12T02:46:04.611Z,80.79
2018-09-12T02:47:04.629Z,80.60
2018-09-12T02:48:04.653Z,80.70
2018-09-12T02:49:04.679Z,80.70
2018-09-12T02:50:04.699Z,80.79
2018-09-12T02:51:04.713Z,80.60
2018-09-12T02:52:04.737Z,80.79
2018-09-12T02:53:04.765Z,80.51
2018-09-12T02:54:04.780Z,80.89
2018-09-12T02:55:04.809Z,80.79
2018-09-12T02:56:04.828Z,80.70
2018-09-12T02:57:04.845Z,80.79
2018-09-12T02:58:04.874Z,80.99
2018-09-12T02:59:04.895Z,80.89
2018-09-12T03:00:04.913Z,80.22
2018-09-12T03:01:04.935Z,80.22
2018-09-12T03:02:04.962Z,80.22
2018-09-12T03:03:04.974Z,80.51
2018-09-12T03:04:05.001Z,80.03
2018-09-12T03:05:05.021Z,80.22
2018-09-12T03:06:05.040Z,80.99
2018-09-12T03:07:05.064Z,80.79
2018-09-12T03:08:05.253Z,80.22
2018-09-12T03:09:05.105Z,79.93
2018-09-12T03:10:05.127Z,80.12
2018-09-12T03:11:05.143Z,80.12
2018-09-12T03:12:05.170Z,81.27
2018-09-12T03:13:05.191Z,81.27
2018-09-12T03:14:05.259Z,81.27
2018-09-12T03:15:05.233Z,82.04
2018-09-12T03:16:05.255Z,81.18
2018-09-12T03:17:05.281Z,81.43
2018-09-12T03:18:05.309Z,81.90
2018-09-12T03:19:05.325Z,80.94
2018-09-12T03:20:05.343Z,81.13
2018-09-12T03:21:05.561Z,81.62
2018-09-12T03:22:05.391Z,82.29
2018-09-12T03:23:05.413Z,84.11
2018-09-12T03:24:05.435Z,86.50
2018-09-12T03:25:05.458Z,87.74
2018-09-12T03:26:05.475Z,88.42
2018-09-12T03:27:05.499Z,85.25
2018-09-12T03:28:05.517Z,86.31
2018-09-12T03:29:05.542Z,85.35
2018-09-12T03:30:05.563Z,86.31
2018-09-12T03:31:05.587Z,86.12
2018-09-12T03:32:05.612Z,87.46
2018-09-12T03:33:05.625Z,86.12
2018-09-12T03:34:05.656Z,86.60
2018-09-12T03:35:05.667Z,86.45
2018-09-12T03:36:05.690Z,88.23
2018-09-12T03:37:05.716Z,88.32
2018-09-12T03:38:05.741Z,90.57
2018-09-12T03:39:05.755Z,89.95
2018-09-12T03:40:05.812Z,91.24
2018-09-12T03:41:05.801Z,94.45
2018-09-12T03:42:05.827Z,95.84
2018-09-12T03:43:05.849Z,92.06
2018-09-12T03:44:05.859Z,89.47
2018-09-12T03:45:05.885Z,90.14
2018-09-12T03:46:05.908Z,90.09
2018-09-12T03:47:05.930Z,90.38
2018-09-12T03:48:05.975Z,92.49
2018-09-12T03:49:05.971Z,90.57
2018-09-12T03:50:05.996Z,90.09
2018-09-12T03:51:06.014Z,92.97
2018-09-12T03:52:06.039Z,92.20
2018-09-12T03:53:06.069Z,88.27
2018-09-12T03:54:06.078Z,89.04
2018-09-12T03:55:06.102Z,94.79
2018-09-12T03:56:06.124Z,95.17
2018-09-12T03:57:06.147Z,90.19
2018-09-12T03:58:06.167Z,90.67
2018-09-12T03:59:06.191Z,99.99
2018-09-12T04:00:06.211Z,99.99
2018-09-12T04:01:06.232Z,99.99
2018-09-12T04:02:06.253Z,99.99
2018-09-12T04:03:06.279Z,99.99
2018-09-12T04:04:06.303Z,99.99
2018-09-12T04:05:06.331Z,99.99
2018-09-12T04:06:06.344Z,99.99
2018-09-12T04:07:06.365Z,99.99
2018-09-12T04:08:06.387Z,99.99
2018-09-12T04:09:06.411Z,99.99
2018-09-12T04:10:06.433Z,99.99
2018-09-12T04:11:06.451Z,99.99
2018-09-12T04:12:06.483Z,99.99
2018-09-12T04:13:06.505Z,99.99
2018-09-12T04:14:06.519Z,99.99
2018-09-12T04:15:06.541Z,99.99
2018-09-12T04:16:06.563Z,99.99
2018-09-12T04:17:06.581Z,99.99
2018-09-12T04:18:06.602Z,99.99
2018-09-12T04:19:06.630Z,99.99
2018-09-12T04:20:06.655Z,99.99
2018-09-12T04:21:06.673Z,99.99
2018-09-12T04:22:06.693Z,99.99
2018-09-12T04:23:06.722Z,99.99
2018-09-12T04:24:06.757Z,99.99
2018-09-12T04:25:06.758Z,99.99
2018-09-12T04:26:06.783Z,99.99
2018-09-12T04:27:06.802Z,99.99
2018-09-12T04:28:06.825Z,99.99
2018-09-12T04:29:06.843Z,99.99
2018-09-12T04:30:06.869Z,99.99
2018-09-12T04:31:06.887Z,99.99
2018-09-12T04:32:06.914Z,99.99
2018-09-12T04:33:06.935Z,99.99
2018-09-12T04:34:06.953Z,99.99
2018-09-12T04:35:06.975Z,99.99
2018-09-12T04:36:07.003Z,99.99
2018-09-12T04:37:07.028Z,99.99
2018-09-12T04:38:07.042Z,99.99
2018-09-12T04:39:07.061Z,99.99
2018-09-12T04:40:07.083Z,99.99
2018-09-12T04:41:07.109Z,99.99
2018-09-12T04:42:07.130Z,99.99
2018-09-12T04:43:07.153Z,99.99
2018-09-12T04:44:07.176Z,99.99
2018-09-12T04:45:07.196Z,99.99
2018-09-12T04:46:07.217Z,99.91
2018-09-12T04:47:07.267Z,99.99
2018-09-12T04:48:07.258Z,99.99
2018-09-12T04:49:07.283Z,99.99
2018-09-12T04:50:07.301Z,99.99
2018-09-12T04:51:07.329Z,99.99
2018-09-12T04:52:07.347Z,99.99
2018-09-12T04:53:07.373Z,99.99
2018-09-12T04:54:07.385Z,99.99
2018-09-12T04:55:07.406Z,99.99
2018-09-12T04:56:07.433Z,99.99
2018-09-12T04:57:07.451Z,99.99
2018-09-12T04:58:07.483Z,99.99
2018-09-12T04:59:07.503Z,99.99
2018-09-12T05:00:07.520Z,99.99
2018-09-12T05:01:07.542Z,99.99
2018-09-12T05:02:07.562Z,99.99
2018-09-12T05:03:07.579Z,99.99
2018-09-12T05:04:07.600Z,99.29
2018-09-12T05:05:07.625Z,99.99
2018-09-12T05:06:07.655Z,97.38
2018-09-12T05:07:07.669Z,96.80
2018-09-12T05:08:07.691Z,92.21
2018-09-12T05:09:07.721Z,88.95
2018-09-12T05:10:07.772Z,88.47
2018-09-12T05:11:07.758Z,89.04
2018-09-12T05:12:07.781Z,87.41
2018-09-12T05:13:07.803Z,86.08
2018-09-12T05:14:07.821Z,85.60
2018-09-12T05:15:07.840Z,88.52
2018-09-12T05:16:07.911Z,89.00
2018-09-12T05:17:07.884Z,88.71
2018-09-12T05:18:07.904Z,88.33
2018-09-12T05:19:07.923Z,88.33
2018-09-12T05:20:07.945Z,87.56
2018-09-12T05:21:07.977Z,89.00
2018-09-12T05:22:07.994Z,86.51
2018-09-12T05:23:08.005Z,86.32
2018-09-12T05:24:08.030Z,85.08
2018-09-12T05:25:08.049Z,87.18
2018-09-12T05:26:08.070Z,89.04
2018-09-12T05:27:08.093Z,88.18
2018-09-12T05:28:08.111Z,89.62
2018-09-12T05:29:08.134Z,89.43
2018-09-12T05:30:08.162Z,90.09
2018-09-12T05:31:08.173Z,91.82
2018-09-12T05:32:08.196Z,90.48
2018-09-12T05:33:08.215Z,89.33
2018-09-12T05:34:08.243Z,90.34
2018-09-12T05:35:08.257Z,89.62
2018-09-12T05:36:08.280Z,90.09
2018-09-12T05:37:08.304Z,91.25
2018-09-12T05:38:08.322Z,93.26
2018-09-12T05:39:08.352Z,90.77
2018-09-12T05:40:08.364Z,93.45
2018-09-12T05:41:08.385Z,91.44
2018-09-12T05:42:08.410Z,92.78
2018-09-12T05:43:08.425Z,90.29
2018-09-12T05:44:08.451Z,92.87
2018-09-12T05:45:08.464Z,94.50
2018-09-12T05:46:08.496Z,90.29
2018-09-12T05:47:08.511Z,88.76
2018-09-12T05:48:08.527Z,88.42
2018-09-12T05:49:08.554Z,92.78
2018-09-12T05:50:08.657Z,96.70
2018-09-12T05:51:08.593Z,96.51
2018-09-12T05:52:08.620Z,93.93
2018-09-12T05:53:08.647Z,93.07
2018-09-12T05:54:08.659Z,95.75
2018-09-12T05:55:08.679Z,93.49
2018-09-12T05:56:08.705Z,97.56
2018-09-12T05:57:08.717Z,99.67
2018-09-12T05:58:08.743Z,98.14
2018-09-12T05:59:08.763Z,99.00
2018-09-12T06:00:08.785Z,99.99
2018-09-12T06:01:08.808Z,99.67
2018-09-12T06:02:08.827Z,97.75
2018-09-12T06:03:08.851Z,99.87
2018-09-12T06:04:08.870Z,98.57
2018-09-12T06:05:08.891Z,99.19
2018-09-12T06:06:08.913Z,99.99
2018-09-12T06:07:09.023Z,99.99
2018-09-12T06:08:08.954Z,99.99
2018-09-12T06:09:08.976Z,99.99
2018-09-12T06:10:08.997Z,99.99
2018-09-12T06:11:09.020Z,99.99
2018-09-12T06:12:09.037Z,99.99
2018-09-12T06:13:09.059Z,99.99
2018-09-12T06:14:09.147Z,99.99
2018-09-12T06:15:09.101Z,99.99
2018-09-12T06:16:09.121Z,99.99
2018-09-12T06:17:09.143Z,99.99
2018-09-12T06:18:09.169Z,99.99
2018-09-12T06:19:09.190Z,99.99
2018-09-12T06:20:09.211Z,99.99
2018-09-12T06:21:09.235Z,99.99
2018-09-12T06:22:09.247Z,99.99
2018-09-12T06:23:09.277Z,99.99
2018-09-12T06:24:09.300Z,99.99
2018-09-12T06:25:09.317Z,99.99
2018-09-12T06:26:09.340Z,99.99
2018-09-12T06:27:09.352Z,99.99
2018-09-12T06:28:09.381Z,99.99
2018-09-12T06:29:09.404Z,99.99
2018-09-12T06:30:09.423Z,99.99
2018-09-12T06:31:09.451Z,99.99
2018-09-12T06:32:09.466Z,99.99
2018-09-12T06:33:09.479Z,99.99
2018-09-12T06:34:09.514Z,99.99
2018-09-12T06:35:09.527Z,99.99
2018-09-12T06:36:09.549Z,99.99
2018-09-12T06:37:09.590Z,99.99
2018-09-12T06:38:09.598Z,99.99
2018-09-12T06:39:09.616Z,99.99
2018-09-12T06:40:09.637Z,99.99
2018-09-12T06:41:09.660Z,99.99
2018-09-12T06:42:09.684Z,97.23
2018-09-12T06:43:09.710Z,99.91
2018-09-12T06:44:09.720Z,99.99
2018-09-12T06:45:09.750Z,97.80
2018-09-12T06:46:09.766Z,99.99
2018-09-12T06:47:09.796Z,99.99
2018-09-12T06:48:09.805Z,99.99
2018-09-12T06:49:09.827Z,99.99
2018-09-12T06:50:09.852Z,99.43
2018-09-12T06:51:09.872Z,99.99
2018-09-12T06:52:09.896Z,99.99
2018-09-12T06:53:09.939Z,99.99
2018-09-12T06:54:09.946Z,99.34
2018-09-12T06:55:09.956Z,99.99
2018-09-12T06:56:09.984Z,99.99
2018-09-12T06:57:10.002Z,99.99
2018-09-12T06:58:10.026Z,99.99
2018-09-12T06:59:10.046Z,99.99
2018-09-12T07:00:10.067Z,99.99
2018-09-12T07:01:10.262Z,98.86
2018-09-12T07:02:10.106Z,99.72
2018-09-12T07:03:10.135Z,99.99
2018-09-12T07:04:10.156Z,99.99
2018-09-12T07:05:10.176Z,99.99
2018-09-12T07:06:10.198Z,99.99
2018-09-12T07:07:10.215Z,99.99
2018-09-12T07:08:10.240Z,99.99
2018-09-12T07:09:10.265Z,99.99
2018-09-12T07:10:10.291Z,99.99
2018-09-12T07:11:10.308Z,99.99
2018-09-12T07:12:10.325Z,99.99
2018-09-12T07:13:10.356Z,99.99
2018-09-12T07:14:10.416Z,99.99
2018-09-12T07:15:10.396Z,99.99
2018-09-12T07:16:10.421Z,99.99
2018-09-12T07:17:10.437Z,99.99
2018-09-12T07:18:10.452Z,99.99
2018-09-12T07:19:10.482Z,99.99
2018-09-12T07:20:10.501Z,99.99
2018-09-12T07:21:10.520Z,99.99
2018-09-12T07:22:10.546Z,99.99
2018-09-12T07:23:10.566Z,99.99
2018-09-12T07:24:10.586Z,99.99
2018-09-12T07:25:10.609Z,99.99
2018-09-12T07:26:10.632Z,99.99
2018-09-12T07:27:10.650Z,99.99
2018-09-12T07:28:10.673Z,99.99
2018-09-12T07:29:10.697Z,99.99
2018-09-12T07:30:10.719Z,99.99
2018-09-12T07:31:10.743Z,99.99
2018-09-12T07:32:10.763Z,99.99
2018-09-12T07:33:10.783Z,99.99
2018-09-12T07:34:10.803Z,99.99
2018-09-12T07:35:10.824Z,99.99
2018-09-12T07:36:10.857Z,99.99
2018-09-12T07:37:10.873Z,99.99
2018-09-12T07:38:10.885Z,99.99
2018-09-12T07:39:10.914Z,99.99
2018-09-12T07:40:10.933Z,99.99
2018-09-12T07:41:10.961Z,99.99
2018-09-12T07:42:10.985Z,99.99
2018-09-12T07:43:11.003Z,99.99
2018-09-12T07:44:11.022Z,99.99
2018-09-12T07:45:11.058Z,96.80
2018-09-12T07:46:11.066Z,95.65
2018-09-12T07:47:11.091Z,95.46
2018-09-12T07:48:11.109Z,96.03
2018-09-12T07:49:11.189Z,93.07
2018-09-12T07:50:11.156Z,90.96
2018-09-12T07:51:11.176Z,90.96
2018-09-12T07:52:11.199Z,89.72
2018-09-12T07:53:11.221Z,90.29
2018-09-12T07:54:11.238Z,91.63
2018-09-12T07:55:11.365Z,90.39
2018-09-12T07:56:11.406Z,89.47
2018-09-12T07:57:11.311Z,91.15
2018-09-12T07:58:11.325Z,91.63
2018-09-12T07:59:11.358Z,94.79
2018-09-12T08:00:11.515Z,93.69
2018-09-12T08:01:11.392Z,91.00
2018-09-12T08:02:11.414Z,91.49
2018-09-12T08:03:11.435Z,95.41
2018-09-12T08:04:11.461Z,95.98
2018-09-12T08:05:11.598Z,96.08
2018-09-12T08:06:11.503Z,96.84
2018-09-12T08:07:11.514Z,95.41
2018-09-12T08:08:11.540Z,97.52
2018-09-12T08:09:11.566Z,97.52
2018-09-12T08:10:11.583Z,95.89
2018-09-12T08:11:11.606Z,96.56
2018-09-12T08:12:11.660Z,96.18
2018-09-12T08:13:11.647Z,99.99
2018-09-12T08:14:11.668Z,98.38
2018-09-12T08:15:11.693Z,99.99
2018-09-12T08:16:11.718Z,99.99
2018-09-12T08:17:11.736Z,99.99
2018-09-12T08:18:11.759Z,97.42
2018-09-12T08:19:11.875Z,99.99
2018-09-12T08:20:11.800Z,99.99
2018-09-12T08:21:11.822Z,99.99
2018-09-12T08:22:11.840Z,99.99
2018-09-12T08:23:11.866Z,99.99
2018-09-12T08:24:11.888Z,99.99
2018-09-12T08:25:11.915Z,99.99
2018-09-12T08:26:11.955Z,99.99
2018-09-12T08:27:11.950Z,99.19
2018-09-12T08:28:11.975Z,98.24
2018-09-12T08:29:11.994Z,99.99
2018-09-12T08:30:12.020Z,99.99
2018-09-12T08:31:12.041Z,99.99
2018-09-12T08:32:12.059Z,99.99
2018-09-12T08:33:12.087Z,99.99
2018-09-12T08:34:12.107Z,99.99
2018-09-12T08:35:12.128Z,99.99
2018-09-12T08:36:12.150Z,99.99
2018-09-12T08:37:12.177Z,99.99
2018-09-12T08:38:12.194Z,99.99
2018-09-12T08:39:12.223Z,99.99
2018-09-12T08:40:12.238Z,99.99
2018-09-12T08:41:12.262Z,99.99
2018-09-12T08:42:12.350Z,99.99
2018-09-12T08:43:12.308Z,99.99
2018-09-12T08:44:12.326Z,99.99
2018-09-12T08:45:12.354Z,99.99
2018-09-12T08:46:12.378Z,99.99
2018-09-12T08:47:12.394Z,99.99
2018-09-12T08:48:12.424Z,99.99
2018-09-12T08:49:12.447Z,99.99
2018-09-12T08:50:12.477Z,99.99
2018-09-12T08:51:12.486Z,99.99
2018-09-12T08:52:12.511Z,99.99
2018-09-12T08:53:12.544Z,99.99
2018-09-12T08:54:12.556Z,99.99
2018-09-12T08:55:12.573Z,99.99
2018-09-12T08:56:12.602Z,99.99
2018-09-12T08:57:12.622Z,99.99
2018-09-12T08:58:12.648Z,99.99
2018-09-12T08:59:12.672Z,99.99
2018-09-12T09:00:12.728Z,99.99
2018-09-12T09:01:12.730Z,99.99
2018-09-12T09:02:12.738Z,99.99
2018-09-12T09:03:12.772Z,99.99
2018-09-12T09:04:12.871Z,99.99
2018-09-12T09:05:12.808Z,99.99
2018-09-12T09:06:12.836Z,99.99
2018-09-12T09:07:12.854Z,99.99
2018-09-12T09:08:12.878Z,99.99
2018-09-12T09:09:12.904Z,99.99
2018-09-12T09:10:12.932Z,99.99
2018-09-12T09:11:12.951Z,99.99
2018-09-12T09:12:12.974Z,99.99
2018-09-12T09:13:13.000Z,99.99
2018-09-12T09:14:13.021Z,99.99
2018-09-12T09:15:13.043Z,99.99
2018-09-12T09:16:13.071Z,99.99
2018-09-12T09:17:13.105Z,99.99
2018-09-12T09:18:13.116Z,99.99
2018-09-12T09:19:13.144Z,99.99
2018-09-12T09:20:13.164Z,99.99
2018-09-12T09:21:13.190Z,99.99
2018-09-12T09:22:13.210Z,99.99
2018-09-12T09:23:13.234Z,99.99
2018-09-12T09:24:13.261Z,99.99
2018-09-12T09:25:13.281Z,99.99
2018-09-12T09:26:13.302Z,99.99
2018-09-12T09:27:13.336Z,99.99
2018-09-12T09:28:13.348Z,99.99
2018-09-12T09:29:13.389Z,99.99
2018-09-12T09:30:13.400Z,99.99
2018-09-12T09:31:13.418Z,99.99
2018-09-12T09:32:13.434Z,99.99
2018-09-12T09:33:13.470Z,99.99
2018-09-12T09:34:13.492Z,99.99
2018-09-12T09:35:13.560Z,99.99
2018-09-12T09:36:13.538Z,99.99
2018-09-12T09:37:13.558Z,99.99
2018-09-12T09:38:13.586Z,99.99
2018-09-12T09:39:13.606Z,99.99
2018-09-12T09:40:13.631Z,99.99
2018-09-12T09:41:13.648Z,99.99
2018-09-12T09:42:13.676Z,99.99
2018-09-12T09:43:13.712Z,99.99
2018-09-12T09:44:13.722Z,99.99
2018-09-12T09:45:13.748Z,99.99
2018-09-12T09:46:13.771Z,99.99
2018-09-12T09:47:13.788Z,99.99
2018-09-12T09:48:14.052Z,99.99
2018-09-12T09:49:13.839Z,99.99
2018-09-12T09:50:13.859Z,99.99
2018-09-12T09:51:13.893Z,99.99
2018-09-12T09:52:13.905Z,99.99
2018-09-12T09:53:13.927Z,99.99
2018-09-12T09:54:13.960Z,99.99
2018-09-12T09:55:14.053Z,99.99
2018-09-12T09:56:13.998Z,99.99
2018-09-12T09:57:14.022Z,99.99
2018-09-12T09:58:14.044Z,99.99
2018-09-12T09:59:14.072Z,99.99
2018-09-12T10:00:14.156Z,99.99
2018-09-12T10:01:14.115Z,99.99
2018-09-12T10:02:14.143Z,99.99
2018-09-12T10:03:14.162Z,99.99
2018-09-12T10:04:14.189Z,99.99
2018-09-12T10:05:14.209Z,99.99
2018-09-12T10:06:14.239Z,99.99
2018-09-12T10:07:14.254Z,99.99
2018-09-12T10:08:14.281Z,99.99
2018-09-12T10:09:14.304Z,99.99
2018-09-12T10:10:14.327Z,99.99
2018-09-12T10:11:14.350Z,99.99
2018-09-12T10:12:14.373Z,99.99
2018-09-12T10:13:14.398Z,99.99
2018-09-12T10:14:14.417Z,99.99
2018-09-12T10:15:14.448Z,99.99
2018-09-12T10:16:14.467Z,99.99
2018-09-12T10:17:14.487Z,99.99
2018-09-12T10:18:14.518Z,99.99
2018-09-12T10:19:14.535Z,99.99
2018-09-12T10:20:14.564Z,99.99
2018-09-12T10:21:14.583Z,99.99
2018-09-12T10:22:14.606Z,99.99
2018-09-12T10:23:14.627Z,99.99
2018-09-12T10:24:14.659Z,99.99
2018-09-12T10:25:14.675Z,99.99
2018-09-12T10:26:14.695Z,99.99
2018-09-12T10:27:14.716Z,99.99
2018-09-12T10:28:14.746Z,99.99
2018-09-12T10:29:14.767Z,99.99
2018-09-12T10:30:14.795Z,99.99
2018-09-12T10:31:14.820Z,99.99
2018-09-12T10:32:14.837Z,99.99
2018-09-12T10:33:14.857Z,99.99
2018-09-12T10:34:14.886Z,99.99
2018-09-12T10:35:14.917Z,99.99
2018-09-12T10:36:14.930Z,99.99
2018-09-12T10:37:14.950Z,99.99
2018-09-12T10:38:14.973Z,99.99
2018-09-12T10:39:14.997Z,99.99
2018-09-12T10:40:15.021Z,99.99
2018-09-12T10:41:15.043Z,99.99
2018-09-12T10:42:15.071Z,99.99
2018-09-12T10:43:15.091Z,99.99
2018-09-12T10:44:15.114Z,99.99
2018-09-12T10:45:15.131Z,99.99
2018-09-12T10:46:15.159Z,99.99
2018-09-12T10:47:15.180Z,99.99
2018-09-12T10:48:15.204Z,99.99
2018-09-12T10:49:15.224Z,99.99
2018-09-12T10:50:15.249Z,99.99
2018-09-12T10:51:15.269Z,99.99
2018-09-12T10:52:15.295Z,99.99
2018-09-12T10:53:15.312Z,99.99
2018-09-12T10:54:15.335Z,99.99
2018-09-12T10:55:15.362Z,99.99
2018-09-12T10:56:15.379Z,99.99
2018-09-12T10:57:15.401Z,99.99
2018-09-12T10:58:15.425Z,99.99
2018-09-12T10:59:15.554Z,99.99
2018-09-12T11:00:15.472Z,99.99
2018-09-12T11:01:15.506Z,99.99
2018-09-12T11:02:15.520Z,99.99
2018-09-12T11:03:15.539Z,99.99
2018-09-12T11:04:15.559Z,99.99
2018-09-12T11:05:15.578Z,99.99
2018-09-12T11:06:15.598Z,99.99
2018-09-12T11:07:15.623Z,99.99
2018-09-12T11:08:15.643Z,99.99
2018-09-12T11:09:15.671Z,99.99
2018-09-12T11:10:15.700Z,99.99
2018-09-12T11:11:15.707Z,99.99
2018-09-12T11:12:15.734Z,99.99
2018-09-12T11:13:15.760Z,99.99
2018-09-12T11:14:15.781Z,99.99
2018-09-12T11:15:15.833Z,99.99
2018-09-12T11:16:15.830Z,99.99
2018-09-12T11:17:15.843Z,99.99
2018-09-12T11:18:15.880Z,99.99
2018-09-12T11:19:15.898Z,99.99
2018-09-12T11:20:15.922Z,99.99
2018-09-12T11:21:15.946Z,99.99
2018-09-12T11:22:15.962Z,99.99
2018-09-12T11:23:15.985Z,99.99
2018-09-12T11:24:16.012Z,99.99
2018-09-12T11:25:16.032Z,99.99
2018-09-12T11:26:16.054Z,99.99
2018-09-12T11:27:16.084Z,99.99
2018-09-12T11:28:16.103Z,99.99
2018-09-12T11:29:16.123Z,99.99
2018-09-12T11:30:16.149Z,99.99
2018-09-12T11:31:16.169Z,99.99
2018-09-12T11:32:16.188Z,99.99
2018-09-12T11:33:16.216Z,99.99
2018-09-12T11:34:16.280Z,99.99
2018-09-12T11:35:16.267Z,99.99
2018-09-12T11:36:16.288Z,99.99
2018-09-12T11:37:16.311Z,99.99
2018-09-12T11:38:16.334Z,99.99
2018-09-12T11:39:16.357Z,99.99
2018-09-12T11:40:16.461Z,99.99
2018-09-12T11:41:16.404Z,99.99
2018-09-12T11:42:16.437Z,99.99
2018-09-12T11:43:16.464Z,99.99
2018-09-12T11:44:16.478Z,99.99
2018-09-12T11:45:16.503Z,99.99
2018-09-12T11:46:16.529Z,99.99
2018-09-12T11:47:16.548Z,99.99
2018-09-12T11:48:16.572Z,99.99
2018-09-12T11:49:16.638Z,99.99
2018-09-12T11:50:16.623Z,99.99
2018-09-12T11:51:16.647Z,99.99
2018-09-12T11:52:16.671Z,99.99
2018-09-12T11:53:16.706Z,99.99
2018-09-12T11:54:16.723Z,99.99
2018-09-12T11:55:16.745Z,99.99
2018-09-12T11:56:16.770Z,99.99
2018-09-12T11:57:16.797Z,99.99
2018-09-12T11:58:16.821Z,99.99
2018-09-12T11:59:16.846Z,99.99
2018-09-12T12:00:16.867Z,99.99
2018-09-12T12:01:16.893Z,99.99
2018-09-12T12:02:16.957Z,99.99
2018-09-12T12:03:16.944Z,99.99
2018-09-12T12:04:16.971Z,99.99
2018-09-12T12:05:16.992Z,99.99
2018-09-12T12:06:17.016Z,99.99
2018-09-12T12:07:17.041Z,99.99
2018-09-12T12:08:17.071Z,99.99
2018-09-12T12:09:17.095Z,99.99
2018-09-12T12:10:17.117Z,99.99
2018-09-12T12:11:17.137Z,99.99
2018-09-12T12:12:17.163Z,99.99
2018-09-12T12:13:17.237Z,99.99
2018-09-12T12:14:17.205Z,99.99
2018-09-12T12:15:17.245Z,99.99
2018-09-12T12:16:17.261Z,99.99
2018-09-12T12:17:17.285Z,99.99
2018-09-12T12:18:17.308Z,99.99
2018-09-12T12:19:17.335Z,99.99
2018-09-12T12:20:17.364Z,99.99
2018-09-12T12:21:17.382Z,99.99
2018-09-12T12:22:17.416Z,99.99
2018-09-12T12:23:17.453Z,99.99
2018-09-12T12:24:17.459Z,99.99
2018-09-12T12:25:17.482Z,99.99
2018-09-12T12:26:17.510Z,99.99
2018-09-12T12:27:17.531Z,99.99
2018-09-12T12:28:17.551Z,99.99
2018-09-12T12:29:17.576Z,99.99
2018-09-12T12:30:17.603Z,99.99
2018-09-12T12:31:17.620Z,99.99
2018-09-12T12:32:17.657Z,99.99
2018-09-12T12:33:17.669Z,99.99
2018-09-12T12:34:17.712Z,99.99
2018-09-12T12:35:17.730Z,99.99
2018-09-12T12:36:17.746Z,99.99
2018-09-12T12:37:17.872Z,99.99
2018-09-12T12:38:17.801Z,99.30
2018-09-12T12:39:17.819Z,99.99
2018-09-12T12:40:17.845Z,99.99
2018-09-12T12:41:17.910Z,99.99
2018-09-12T12:42:17.893Z,99.99
2018-09-12T12:43:17.913Z,99.99
2018-09-12T12:44:17.948Z,99.99
2018-09-12T12:45:17.963Z,99.99
2018-09-12T12:46:17.984Z,99.99
2018-09-12T12:47:18.008Z,99.99
2018-09-12T12:48:18.035Z,99.99
2018-09-12T12:49:18.061Z,99.99
2018-09-12T12:50:18.085Z,99.99
2018-09-12T12:51:18.105Z,99.99
2018-09-12T12:52:18.130Z,99.99